Time;durP1;ratioP1;P1;durP2;ratioP2;P2;SDS_P1;SDS_P2;PMS_P1;PMS_P2;Temp;Humidity;BMP_temperature;BMP_pressure;BME280_temperature;BME280_humidity;BME280_pressure;Samples;Min_cycle;Max_cycle;Signal;HPM_P1;HPM_P2
2022/10/26 00:00:07;;;;;;;10.50;9.32;;;7.60;99.90;;;;;;5021929;28;20038;-58
2022/10/26 00:02:33;;;;;;;14.43;9.43;;;7.60;99.90;;;;;;5019369;28;20025;-59
2022/10/26 00:04:59;;;;;;;16.55;10.02;;;7.60;99.90;;;;;;5021030;28;20033;-59
2022/10/26 00:07:24;;;;;;;14.52;8.63;;;7.60;99.90;;;;;;5020597;28;20433;-59
2022/10/26 00:09:50;;;;;;;22.15;8.60;;;7.50;99.90;;;;;;5022293;28;20026;-57
2022/10/26 00:12:15;;;;;;;11.48;7.30;;;7.50;99.90;;;;;;5024087;28;20037;-57
2022/10/26 00:14:41;;;;;;;17.33;7.70;;;7.50;99.90;;;;;;5016373;28;20096;-59
2022/10/26 00:17:07;;;;;;;9.40;7.50;;;7.50;99.90;;;;;;5019430;28;21022;-58
2022/10/26 00:19:34;;;;;;;10.30;7.07;;;7.50;99.90;;;;;;5020848;28;20098;-58
2022/10/26 00:21:59;;;;;;;8.35;7.22;;;7.60;99.90;;;;;;5023829;28;20032;-59
2022/10/26 00:24:25;;;;;;;11.88;8.43;;;7.60;99.90;;;;;;5020685;28;20684;-59
2022/10/26 00:26:51;;;;;;;13.55;8.27;;;7.60;99.90;;;;;;5020164;28;20076;-59
2022/10/26 00:29:17;;;;;;;8.88;7.80;;;7.60;99.90;;;;;;5021181;28;20025;-59
2022/10/26 00:31:43;;;;;;;8.13;7.38;;;7.60;99.90;;;;;;5019164;28;20040;-58
2022/10/26 00:34:10;;;;;;;9.80;8.50;;;7.70;99.90;;;;;;5020991;28;20029;-59
2022/10/26 00:36:36;;;;;;;9.90;8.50;;;7.70;99.90;;;;;;5018699;28;20402;-58
2022/10/26 00:39:02;;;;;;;17.23;8.75;;;7.70;99.90;;;;;;5020329;28;20029;-59
2022/10/26 00:41:34;;;;;;;9.48;8.40;;;7.70;99.90;;;;;;5022096;28;20026;-60
2022/10/26 00:44:00;;;;;;;12.40;8.15;;;7.70;99.90;;;;;;5017022;28;20044;-59
2022/10/26 00:46:28;;;;;;;12.35;8.63;;;7.70;99.90;;;;;;5021395;28;20037;-59
2022/10/26 00:48:58;;;;;;;11.05;7.70;;;7.80;99.90;;;;;;5019667;28;20582;-58
2022/10/26 00:51:42;;;;;;;9.95;8.02;;;7.80;99.90;;;;;;5021013;28;20823;-59
2022/10/26 00:54:17;;;;;;;9.13;8.23;;;7.80;99.90;;;;;;5020120;28;20030;-58
2022/10/26 00:56:44;;;;;;;9.80;8.38;;;7.80;99.90;;;;;;5022484;28;20022;-58
2022/10/26 00:59:12;;;;;;;7.80;7.10;;;7.80;99.90;;;;;;5016373;28;20110;-58
2022/10/26 01:01:40;;;;;;;9.95;8.93;;;7.80;99.90;;;;;;5022386;28;20030;-58
2022/10/26 01:04:06;;;;;;;9.45;8.15;;;7.80;99.90;;;;;;5020207;28;20030;-58
2022/10/26 01:06:33;;;;;;;11.27;7.60;;;7.80;99.90;;;;;;5028115;28;20022;-60
2022/10/26 01:08:59;;;;;;;7.95;7.15;;;7.80;99.90;;;;;;5021648;28;20037;-59
2022/10/26 01:11:25;;;;;;;11.38;7.45;;;7.80;99.90;;;;;;5023135;28;20029;-58
2022/10/26 01:13:52;;;;;;;9.13;7.07;;;7.80;99.90;;;;;;5018486;28;20037;-59
2022/10/26 01:16:36;;;;;;;10.90;6.97;;;7.80;99.90;;;;;;5019216;28;20069;-58
2022/10/26 01:19:08;;;;;;;19.55;9.63;;;7.80;99.90;;;;;;5017913;28;20111;-59
2022/10/26 01:21:42;;;;;;;8.52;7.03;;;7.80;99.90;;;;;;5019750;28;20026;-58
2022/10/26 01:24:32;;;;;;;8.18;6.95;;;7.80;99.90;;;;;;5017173;28;20037;-58
2022/10/26 01:27:30;;;;;;;9.93;7.63;;;7.70;99.90;;;;;;5020566;28;20037;-58
2022/10/26 01:30:14;;;;;;;8.90;8.00;;;7.70;99.90;;;;;;5024321;28;20122;-58
2022/10/26 01:33:04;;;;;;;11.18;6.65;;;7.70;99.90;;;;;;5018400;28;20086;-58
2022/10/26 01:35:45;;;;;;;7.63;6.93;;;7.60;99.90;;;;;;5018576;28;20060;-57
2022/10/26 01:38:15;;;;;;;8.20;7.30;;;7.70;99.90;;;;;;5019801;28;20026;-58
2022/10/26 01:41:04;;;;;;;7.70;6.97;;;7.60;99.90;;;;;;5022220;28;20018;-58
2022/10/26 01:43:34;;;;;;;9.32;8.43;;;7.60;99.90;;;;;;5018058;28;20030;-59
2022/10/26 01:46:02;;;;;;;11.05;7.75;;;7.60;99.90;;;;;;5017992;28;20057;-59
2022/10/26 01:48:28;;;;;;;11.23;8.80;;;7.60;99.90;;;;;;5015499;28;20113;-57
2022/10/26 01:50:56;;;;;;;9.15;8.25;;;7.70;99.90;;;;;;5017603;28;20034;-59
2022/10/26 01:53:24;;;;;;;10.60;7.80;;;7.70;99.90;;;;;;5018503;28;20026;-59
2022/10/26 01:55:54;;;;;;;9.27;8.30;;;7.70;99.90;;;;;;5020976;28;20549;-57
2022/10/26 01:58:40;;;;;;;9.40;8.52;;;7.80;99.90;;;;;;5024034;28;20053;-57
2022/10/26 02:01:44;;;;;;;10.90;8.57;;;7.80;99.90;;;;;;5018705;28;20546;-59
2022/10/26 02:04:52;;;;;;;10.30;8.25;;;7.90;99.90;;;;;;5023851;28;20378;-58
2022/10/26 02:07:35;;;;;;;8.77;7.88;;;7.90;99.90;;;;;;5019035;28;20060;-57
2022/10/26 02:10:10;;;;;;;8.18;7.43;;;7.90;99.90;;;;;;5020286;28;20029;-59
2022/10/26 02:13:00;;;;;;;8.45;7.65;;;8.00;99.90;;;;;;5016576;28;20076;-58
2022/10/26 02:15:48;;;;;;;8.98;8.10;;;8.00;99.90;;;;;;5018876;28;20029;-58
2022/10/26 02:18:34;;;;;;;11.20;9.18;;;8.00;99.90;;;;;;4999854;28;20029;-57
2022/10/26 02:21:05;;;;;;;12.80;9.60;;;8.00;99.90;;;;;;5017756;28;20045;-58
2022/10/26 02:23:35;;;;;;;9.50;8.50;;;8.10;99.90;;;;;;5018510;28;20026;-58
2022/10/26 02:26:06;;;;;;;9.10;7.78;;;8.10;99.90;;;;;;5022272;28;20037;-58
2022/10/26 02:28:38;;;;;;;12.50;9.20;;;8.10;99.90;;;;;;5014388;28;20034;-58
2022/10/26 02:31:06;;;;;;;11.90;8.48;;;8.10;99.90;;;;;;5013133;28;20469;-59
2022/10/26 02:33:37;;;;;;;9.93;7.57;;;8.10;99.90;;;;;;5019679;28;20034;-58
2022/10/26 02:36:04;;;;;;;;;;;8.10;99.90;;;;;;5019951;28;20028;-61
2022/10/26 02:38:33;;;;;;;9.07;7.13;;;8.20;99.90;;;;;;5017971;28;20309;-58
2022/10/26 02:41:01;;;;;;;8.23;7.22;;;8.20;99.90;;;;;;5018505;28;20120;-58
2022/10/26 02:43:28;;;;;;;8.77;6.88;;;8.20;99.90;;;;;;5016068;28;20041;-58
2022/10/26 02:45:58;;;;;;;6.85;6.13;;;8.20;99.90;;;;;;5017791;28;20037;-58
2022/10/26 02:48:24;;;;;;;7.45;6.28;;;8.20;99.90;;;;;;5018773;28;20037;-57
2022/10/26 02:51:10;;;;;;;11.70;6.07;;;8.20;99.90;;;;;;5022686;28;20536;-57
2022/10/26 02:53:57;;;;;;;7.72;5.78;;;8.20;99.90;;;;;;5018190;28;20014;-59
2022/10/26 02:56:43;;;;;;;8.80;6.10;;;8.20;99.90;;;;;;5021885;28;20026;-58
2022/10/26 02:59:11;;;;;;;9.07;6.10;;;8.20;99.90;;;;;;5018319;28;20030;-58
2022/10/26 03:01:37;;;;;;;7.85;7.07;;;8.20;99.90;;;;;;5014897;28;20665;-57
2022/10/26 03:04:03;;;;;;;7.88;6.35;;;8.10;99.90;;;;;;5016060;28;20026;-57
2022/10/26 03:06:28;;;;;;;9.30;5.80;;;8.20;99.90;;;;;;5016309;28;20033;-58
2022/10/26 03:08:54;;;;;;;6.05;5.47;;;8.20;99.90;;;;;;5017324;28;20022;-58
2022/10/26 03:11:20;;;;;;;8.73;5.93;;;8.20;99.90;;;;;;5018115;28;20018;-58
2022/10/26 03:13:45;;;;;;;18.02;5.72;;;8.30;99.90;;;;;;5014795;28;20506;-58
2022/10/26 03:16:12;;;;;;;6.38;5.40;;;8.30;99.90;;;;;;5019184;28;20030;-58
2022/10/26 03:18:37;;;;;;;8.10;5.78;;;8.20;99.90;;;;;;5017779;28;20026;-58
2022/10/26 03:21:03;;;;;;;7.95;5.80;;;8.30;99.90;;;;;;5017386;28;20056;-59
2022/10/26 03:23:28;;;;;;;7.63;6.03;;;8.20;99.90;;;;;;5012312;28;20022;-57
2022/10/26 03:25:58;;;;;;;8.27;5.50;;;8.30;99.90;;;;;;5020372;28;20374;-58
2022/10/26 03:28:24;;;;;;;11.77;5.97;;;8.30;99.90;;;;;;5020817;28;20065;-58
2022/10/26 03:30:50;;;;;;;7.63;5.38;;;8.30;99.90;;;;;;5018227;28;20069;-58
2022/10/26 03:33:15;;;;;;;6.57;5.80;;;8.40;99.90;;;;;;5020264;28;20433;-59
2022/10/26 03:35:41;;;;;;;13.68;6.05;;;8.40;99.90;;;;;;5019522;28;20018;-60
2022/10/26 03:38:07;;;;;;;5.75;5.15;;;8.40;99.90;;;;;;5017980;28;20029;-58
2022/10/26 03:40:34;;;;;;;7.10;5.70;;;8.40;99.90;;;;;;5017412;28;20021;-57
2022/10/26 03:43:00;;;;;;;6.80;6.00;;;8.50;99.90;;;;;;5019356;28;20037;-57
2022/10/26 03:45:25;;;;;;;10.85;5.78;;;8.50;99.90;;;;;;5019276;28;20034;-58
2022/10/26 03:47:51;;;;;;;7.85;6.43;;;8.50;99.90;;;;;;5016432;28;20026;-58
2022/10/26 03:50:18;;;;;;;6.72;6.07;;;8.50;99.90;;;;;;5019808;28;20041;-58
2022/10/26 03:52:46;;;;;;;8.95;6.18;;;8.50;99.90;;;;;;5020253;28;20033;-59
2022/10/26 03:55:12;;;;;;;8.57;6.45;;;8.50;99.90;;;;;;5019481;28;20018;-58
2022/10/26 03:57:42;;;;;;;11.32;6.65;;;8.50;99.90;;;;;;5019656;28;20502;-58
2022/10/26 04:00:10;;;;;;;8.23;6.28;;;8.60;99.90;;;;;;5019384;28;20571;-59
2022/10/26 04:02:36;;;;;;;12.02;7.32;;;8.60;99.90;;;;;;5017557;28;20504;-58
2022/10/26 04:05:01;;;;;;;14.95;6.82;;;8.60;99.90;;;;;;5021795;28;20026;-59
2022/10/26 04:07:27;;;;;;;6.88;6.18;;;8.70;99.90;;;;;;5022955;28;20034;-58
2022/10/26 04:09:52;;;;;;;11.07;6.63;;;8.70;99.90;;;;;;5019422;28;20533;-57
2022/10/26 04:12:18;;;;;;;8.02;5.28;;;8.80;99.90;;;;;;5023176;28;20034;-57
2022/10/26 04:14:44;;;;;;;10.68;6.28;;;8.80;99.90;;;;;;5019268;28;20394;-57
2022/10/26 04:17:09;;;;;;;6.32;5.72;;;8.90;99.90;;;;;;5019398;28;20115;-57
2022/10/26 04:19:35;;;;;;;7.78;5.88;;;8.90;99.90;;;;;;5023217;28;20413;-57
2022/10/26 04:22:00;;;;;;;13.20;6.22;;;8.90;99.90;;;;;;5023131;28;20033;-57
2022/10/26 04:24:26;;;;;;;9.70;5.68;;;8.90;99.90;;;;;;5020672;28;20041;-59
2022/10/26 04:26:52;;;;;;;6.15;5.55;;;8.90;99.90;;;;;;5019401;28;20029;-57
2022/10/26 04:29:17;;;;;;;7.20;6.15;;;8.90;99.90;;;;;;5020602;28;20029;-58
2022/10/26 04:31:43;;;;;;;10.20;6.28;;;8.90;99.90;;;;;;5018774;28;20026;-58
2022/10/26 04:34:08;;;;;;;9.20;5.20;;;8.90;99.90;;;;;;5019179;28;20022;-58
2022/10/26 04:36:34;;;;;;;6.07;5.50;;;8.90;99.90;;;;;;5019521;28;20390;-58
2022/10/26 04:39:00;;;;;;;9.25;6.47;;;9.00;99.90;;;;;;5022122;28;20032;-60
2022/10/26 04:41:25;;;;;;;6.95;5.50;;;9.00;99.90;;;;;;5018658;28;20084;-58
2022/10/26 04:43:51;;;;;;;8.27;5.35;;;9.00;99.90;;;;;;5020284;28;20062;-58
2022/10/26 04:46:17;;;;;;;10.13;5.75;;;8.90;99.90;;;;;;5021879;28;20708;-58
2022/10/26 04:48:42;;;;;;;13.50;6.28;;;8.90;99.90;;;;;;5021781;28;20144;-58
2022/10/26 04:51:08;;;;;;;16.25;11.98;;;8.90;99.90;;;;;;5022701;28;20095;-59
2022/10/26 04:53:34;;;;;;;10.68;9.70;;;8.80;99.90;;;;;;5019516;28;20507;-58
2022/10/26 04:56:00;;;;;;;11.48;9.55;;;8.80;99.90;;;;;;5024505;28;20021;-58
2022/10/26 04:58:27;;;;;;;16.00;8.10;;;8.80;99.90;;;;;;5024925;28;20045;-58
2022/10/26 05:00:53;;;;;;;6.30;5.70;;;8.80;99.90;;;;;;5021735;28;20029;-57
2022/10/26 05:03:19;;;;;;;14.80;5.88;;;8.80;99.90;;;;;;5019167;28;20036;-58
2022/10/26 05:05:46;;;;;;;9.93;5.05;;;8.80;99.90;;;;;;5019512;28;20025;-58
2022/10/26 05:08:12;;;;;;;16.15;6.45;;;8.80;99.90;;;;;;5017529;28;20017;-58
2022/10/26 05:10:38;;;;;;;9.32;6.25;;;8.80;99.90;;;;;;5016287;28;20505;-58
2022/10/26 05:13:04;;;;;;;14.80;6.55;;;8.90;99.90;;;;;;5021226;28;20109;-58
2022/10/26 05:15:30;;;;;;;9.35;6.07;;;8.90;99.90;;;;;;5019145;28;20579;-58
2022/10/26 05:18:04;;;;;;;9.35;6.50;;;8.90;99.90;;;;;;5019443;28;20052;-58
2022/10/26 05:20:32;;;;;;;6.18;5.65;;;9.00;99.90;;;;;;5022122;28;20478;-60
2022/10/26 05:23:00;;;;;;;9.68;6.80;;;9.00;99.90;;;;;;5020595;28;20055;-58
2022/10/26 05:25:27;;;;;;;15.82;7.78;;;9.00;99.90;;;;;;5021585;28;20030;-57
2022/10/26 05:28:03;;;;;;;7.80;7.10;;;9.00;99.90;;;;;;5020211;28;20033;-59
2022/10/26 05:30:30;;;;;;;10.85;7.03;;;9.00;99.90;;;;;;5019395;28;20048;-58
2022/10/26 05:33:01;;;;;;;15.65;7.53;;;9.00;99.90;;;;;;5023185;28;20169;-59
2022/10/26 05:35:27;;;;;;;12.95;7.20;;;9.00;99.90;;;;;;5018882;28;20609;-58
2022/10/26 05:37:53;;;;;;;15.95;6.78;;;9.00;99.90;;;;;;5020639;28;20150;-59
2022/10/26 05:40:19;;;;;;;7.40;6.70;;;9.00;99.90;;;;;;5020805;28;20029;-59
2022/10/26 05:42:44;;;;;;;8.90;7.10;;;9.00;99.90;;;;;;5017843;28;20374;-58
2022/10/26 05:45:11;;;;;;;9.50;7.13;;;9.10;99.90;;;;;;5015453;28;20036;-59
2022/10/26 05:47:41;;;;;;;14.20;7.90;;;9.10;99.90;;;;;;5019288;28;20040;-59
2022/10/26 05:50:07;;;;;;;10.70;9.07;;;9.10;99.90;;;;;;5018538;28;20029;-58
2022/10/26 05:52:43;;;;;;;13.82;12.40;;;9.10;99.90;;;;;;5019064;28;20026;-58
2022/10/26 05:55:11;;;;;;;17.50;15.68;;;9.20;99.90;;;;;;5018323;28;20037;-59
2022/10/26 05:57:37;;;;;;;16.33;13.63;;;9.20;99.90;;;;;;5017411;28;20041;-59
2022/10/26 06:00:07;;;;;;;15.35;13.10;;;9.20;99.90;;;;;;5019464;28;20026;-59
2022/10/26 06:03:10;;;;;;;12.95;11.73;;;9.30;99.90;;;;;;5018203;28;20077;-58
2022/10/26 06:05:52;;;;;;;15.52;9.50;;;9.20;99.90;;;;;;5021549;28;20128;-58
2022/10/26 06:08:19;;;;;;;10.73;9.68;;;9.30;99.90;;;;;;5016544;28;20063;-57
2022/10/26 06:10:45;;;;;;;11.73;9.15;;;9.30;99.90;;;;;;5016535;28;20034;-58
2022/10/26 06:13:11;;;;;;;10.25;8.95;;;9.30;99.90;;;;;;5018506;28;20645;-57
2022/10/26 06:16:05;;;;;;;11.38;8.88;;;9.40;99.90;;;;;;5015421;28;20030;-58
2022/10/26 06:19:05;;;;;;;9.05;7.97;;;9.40;99.90;;;;;;5019107;28;20080;-60
2022/10/26 06:21:36;;;;;;;22.55;10.65;;;9.50;99.90;;;;;;5014747;28;20076;-58
2022/10/26 06:24:11;;;;;;;15.27;10.88;;;9.50;99.90;;;;;;5019654;28;20025;-59
2022/10/26 06:27:22;;;;;;;16.38;11.02;;;9.50;99.90;;;;;;5014457;28;20029;-57
2022/10/26 06:30:08;;;;;;;10.52;9.50;;;9.60;99.90;;;;;;4964561;28;20030;-58
2022/10/26 06:32:34;;;;;;;9.45;8.55;;;9.60;99.90;;;;;;4965858;28;20070;-59
2022/10/26 06:35:06;;;;;;;13.32;9.38;;;9.60;99.90;;;;;;5001349;28;20482;-58
2022/10/26 06:37:32;;;;;;;9.82;7.35;;;9.60;99.90;;;;;;5020304;28;20022;-58
2022/10/26 06:39:59;;;;;;;10.07;8.48;;;9.70;99.90;;;;;;5018074;28;20041;-57
2022/10/26 06:42:25;;;;;;;13.40;8.30;;;9.70;99.90;;;;;;5015373;28;20611;-58
2022/10/26 06:44:50;;;;;;;13.75;8.88;;;9.70;99.90;;;;;;5019825;28;20022;-58
2022/10/26 06:48:01;;;;;;;15.32;7.70;;;9.70;99.90;;;;;;5017424;28;20136;-58
2022/10/26 06:50:41;;;;;;;20.40;8.73;;;9.80;99.90;;;;;;5018975;28;20116;-59
2022/10/26 06:53:31;;;;;;;10.27;9.18;;;9.80;99.90;;;;;;5019900;28;20076;-59
2022/10/26 06:55:58;;;;;;;9.15;7.00;;;9.90;99.90;;;;;;5022239;28;20021;-57
2022/10/26 06:58:29;;;;;;;8.85;7.82;;;10.00;99.90;;;;;;5016317;28;20038;-56
2022/10/26 07:00:55;;;;;;;18.73;8.63;;;10.10;99.90;;;;;;5023728;28;20088;-59
2022/10/26 07:03:21;;;;;;;11.30;8.73;;;10.20;99.90;;;;;;5023369;28;20033;-58
2022/10/26 07:05:47;;;;;;;38.97;16.90;;;10.30;99.90;;;;;;5020885;28;20022;-58
2022/10/26 07:08:13;;;;;;;37.30;17.63;;;10.30;99.90;;;;;;5016273;28;20588;-58
2022/10/26 07:10:39;;;;;;;40.08;17.73;;;10.40;99.90;;;;;;5015369;28;20040;-58
2022/10/26 07:13:05;;;;;;;26.08;12.30;;;10.50;99.90;;;;;;5018605;28;20033;-58
2022/10/26 07:15:32;;;;;;;30.55;13.25;;;10.50;99.90;;;;;;5019734;28;20045;-59
2022/10/26 07:17:57;;;;;;;16.60;10.00;;;10.60;99.90;;;;;;5017600;28;20034;-59
2022/10/26 07:20:23;;;;;;;19.45;10.60;;;10.60;99.90;;;;;;5017917;28;20548;-58
2022/10/26 07:22:55;;;;;;;18.50;10.93;;;10.70;99.90;;;;;;5014725;28;20398;-59
2022/10/26 07:25:22;;;;;;;20.10;11.90;;;10.80;99.90;;;;;;5017969;28;20056;-59
2022/10/26 07:27:48;;;;;;;21.65;10.45;;;10.90;99.90;;;;;;5017040;28;20034;-59
2022/10/26 07:30:14;;;;;;;16.73;10.50;;;11.00;99.90;;;;;;5017760;28;20828;-57
2022/10/26 07:32:40;;;;;;;13.10;8.18;;;11.10;99.90;;;;;;5018011;28;20033;-59
2022/10/26 07:35:06;;;;;;;14.50;8.35;;;11.30;99.90;;;;;;5017873;28;20105;-59
2022/10/26 07:37:31;;;;;;;7.85;7.15;;;11.30;99.90;;;;;;5019340;28;20029;-59
2022/10/26 07:39:57;;;;;;;10.10;7.53;;;11.40;99.90;;;;;;5021148;28;20061;-59
2022/10/26 07:42:23;;;;;;;13.98;7.68;;;11.50;99.90;;;;;;5021442;28;20021;-60
2022/10/26 07:44:48;;;;;;;9.35;7.38;;;11.50;99.90;;;;;;5022828;28;20022;-58
2022/10/26 07:47:14;;;;;;;11.10;6.75;;;11.50;99.90;;;;;;5019605;28;20030;-58
2022/10/26 07:49:39;;;;;;;8.77;7.72;;;11.50;99.90;;;;;;5023527;28;20038;-59
2022/10/26 07:52:05;;;;;;;9.85;7.03;;;11.50;99.90;;;;;;5022535;28;20037;-59
2022/10/26 07:54:31;;;;;;;8.80;7.72;;;11.50;99.90;;;;;;5024742;28;20112;-59
2022/10/26 07:56:58;;;;;;;11.23;6.60;;;11.60;99.90;;;;;;5024216;28;20064;-60
2022/10/26 07:59:23;;;;;;;7.18;6.03;;;11.70;99.90;;;;;;5022471;28;20040;-59
2022/10/26 08:01:49;;;;;;;8.32;6.55;;;11.70;99.90;;;;;;5025370;28;20022;-59
2022/10/26 08:04:15;;;;;;;9.30;6.55;;;11.70;99.90;;;;;;5021607;28;20379;-59
2022/10/26 08:06:41;;;;;;;9.23;7.32;;;11.70;99.90;;;;;;5022334;28;20423;-59
2022/10/26 08:09:06;;;;;;;7.90;7.05;;;11.70;99.90;;;;;;5019101;28;20029;-58
2022/10/26 08:11:35;;;;;;;9.20;7.13;;;11.70;99.90;;;;;;5021042;28;20032;-59
2022/10/26 08:14:01;;;;;;;13.90;8.15;;;11.80;99.90;;;;;;5020087;28;20048;-58
2022/10/26 08:16:27;;;;;;;10.10;7.70;;;11.80;99.90;;;;;;5024972;28;20499;-60
2022/10/26 08:18:53;;;;;;;12.68;7.88;;;11.80;99.90;;;;;;5024913;28;20044;-58
2022/10/26 08:21:19;;;;;;;9.25;8.32;;;11.90;99.90;;;;;;5022058;28;20029;-58
2022/10/26 08:23:44;;;;;;;11.10;7.70;;;11.90;99.90;;;;;;5015143;28;20468;-57
2022/10/26 08:26:10;;;;;;;7.43;6.72;;;12.00;99.90;;;;;;5023268;28;20052;-59
2022/10/26 08:28:37;;;;;;;12.40;8.32;;;12.10;99.90;;;;;;5022026;28;20627;-58
2022/10/26 08:31:03;;;;;;;7.55;6.78;;;12.10;99.90;;;;;;5021986;28;20652;-58
2022/10/26 08:33:28;;;;;;;10.77;7.45;;;12.10;99.90;;;;;;5020247;28;20109;-58
2022/10/26 08:35:59;;;;;;;8.95;8.05;;;12.10;99.90;;;;;;5024196;28;20103;-57
2022/10/26 08:38:25;;;;;;;9.48;8.55;;;12.10;99.90;;;;;;5021231;28;20029;-58
2022/10/26 08:40:52;;;;;;;8.10;7.40;;;12.20;99.90;;;;;;5018601;28;20450;-58
2022/10/26 08:43:38;;;;;;;7.88;7.15;;;12.20;99.90;;;;;;5020233;28;20061;-58
2022/10/26 08:46:22;;;;;;;8.88;8.07;;;12.20;99.90;;;;;;5018185;28;20497;-58
2022/10/26 08:48:59;;;;;;;8.73;7.82;;;12.30;99.90;;;;;;5018469;28;20144;-59
2022/10/26 08:51:34;;;;;;;7.85;7.07;;;12.40;99.90;;;;;;5019648;28;20568;-57
2022/10/26 08:54:08;;;;;;;8.40;7.45;;;12.40;99.90;;;;;;5022326;28;20128;-57
2022/10/26 08:56:45;;;;;;;7.90;7.20;;;12.40;99.90;;;;;;5021961;28;20026;-58
2022/10/26 08:59:34;;;;;;;10.43;7.55;;;12.40;99.90;;;;;;5017847;28;20045;-60
2022/10/26 09:02:01;;;;;;;8.15;7.15;;;12.40;99.90;;;;;;5015571;28;20030;-58
2022/10/26 09:04:29;;;;;;;7.35;6.35;;;12.40;99.90;;;;;;5017819;28;20112;-59
2022/10/26 09:07:03;;;;;;;12.98;7.13;;;12.30;99.90;;;;;;5019888;28;20413;-59
2022/10/26 09:10:03;;;;;;;9.02;7.50;;;12.40;99.90;;;;;;5020269;28;20093;-58
2022/10/26 09:12:38;;;;;;;8.88;7.30;;;12.40;99.90;;;;;;5015670;28;20053;-57
2022/10/26 09:15:06;;;;;;;7.65;6.95;;;12.60;99.90;;;;;;5019297;28;20092;-60
2022/10/26 09:18:06;;;;;;;6.82;6.10;;;12.70;99.90;;;;;;5019455;28;20029;-59
2022/10/26 09:20:31;;;;;;;7.10;6.50;;;12.70;99.90;;;;;;5021422;28;20068;-57
2022/10/26 09:23:03;;;;;;;7.45;5.75;;;12.70;99.90;;;;;;5019923;28;20509;-59
2022/10/26 09:25:37;;;;;;;6.70;5.95;;;12.80;99.90;;;;;;5018440;28;20430;-59
2022/10/26 09:28:04;;;;;;;7.15;5.95;;;12.80;99.90;;;;;;5020131;28;20537;-58
2022/10/26 09:30:31;;;;;;;7.00;6.32;;;12.90;99.90;;;;;;5018239;28;20072;-59
2022/10/26 09:33:00;;;;;;;8.00;6.32;;;13.00;99.90;;;;;;5017237;28;20022;-60
2022/10/26 09:35:41;;;;;;;9.07;6.63;;;13.00;99.90;;;;;;5017827;28;20088;-59
2022/10/26 09:38:14;;;;;;;8.52;6.97;;;13.10;99.90;;;;;;5018101;28;20050;-60
2022/10/26 09:40:53;;;;;;;6.93;6.03;;;13.10;99.90;;;;;;5018690;28;20373;-60
2022/10/26 09:43:25;;;;;;;6.78;6.18;;;13.20;99.90;;;;;;5018422;28;20033;-60
2022/10/26 09:45:51;;;;;;;7.00;6.32;;;13.20;99.90;;;;;;5020120;28;20048;-61
2022/10/26 09:48:40;;;;;;;9.32;7.13;;;13.20;99.90;;;;;;5016543;28;20565;-59
2022/10/26 09:51:06;;;;;;;6.32;5.82;;;13.30;99.90;;;;;;5015353;28;20382;-59
2022/10/26 09:53:31;;;;;;;9.95;7.28;;;13.50;99.90;;;;;;5020260;28;20041;-60
2022/10/26 09:56:07;;;;;;;11.07;5.95;;;14.10;99.90;;;;;;5020715;28;20083;-58
2022/10/26 09:58:41;;;;;;;5.75;5.25;;;14.80;99.90;;;;;;5020745;28;20036;-60
2022/10/26 10:01:19;;;;;;;7.35;5.35;;;14.90;99.90;;;;;;5014706;28;20034;-59
2022/10/26 10:03:44;;;;;;;6.55;5.72;;;14.90;99.90;;;;;;5016944;28;20036;-59
2022/10/26 10:06:14;;;;;;;6.60;5.50;;;14.90;99.90;;;;;;5020543;28;20104;-59
2022/10/26 10:08:40;;;;;;;8.00;5.38;;;14.90;99.90;;;;;;5017592;28;20022;-59
2022/10/26 10:11:14;;;;;;;5.57;5.10;;;14.90;99.90;;;;;;5022628;28;20414;-60
2022/10/26 10:13:44;;;;;;;7.00;6.30;;;15.10;99.90;;;;;;5017760;28;20044;-59
2022/10/26 10:16:21;;;;;;;8.00;5.53;;;15.20;99.90;;;;;;5021551;28;20030;-60
2022/10/26 10:18:56;;;;;;;9.05;5.35;;;15.20;99.90;;;;;;5013233;28;20033;-59
2022/10/26 10:21:43;;;;;;;5.43;4.95;;;15.20;99.90;;;;;;5018876;28;20029;-60
2022/10/26 10:24:32;;;;;;;7.97;5.25;;;15.40;99.90;;;;;;5019508;28;20380;-60
2022/10/26 10:27:03;;;;;;;5.10;4.50;;;15.80;99.90;;;;;;5015843;28;20477;-60
2022/10/26 10:29:32;;;;;;;5.40;4.38;;;16.20;99.90;;;;;;5019331;28;20528;-60
2022/10/26 10:32:00;;;;;;;9.15;4.40;;;16.60;99.90;;;;;;5014708;28;20034;-60
2022/10/26 10:34:29;;;;;;;4.13;3.17;;;16.90;99.90;;;;;;5019972;28;20685;-61
2022/10/26 10:36:55;;;;;;;4.90;3.95;;;17.30;99.90;;;;;;5015055;28;20056;-60
2022/10/26 10:39:40;;;;;;;6.68;3.58;;;17.60;99.90;;;;;;5015643;28;20029;-59
2022/10/26 10:42:33;;;;;;;3.75;2.63;;;18.10;99.90;;;;;;5020175;28;20107;-60
2022/10/26 10:45:01;;;;;;;8.73;2.83;;;18.60;99.90;;;;;;5019533;28;20933;-60
2022/10/26 10:47:36;;;;;;;3.63;2.60;;;19.00;99.90;;;;;;5015923;28;20041;-60
2022/10/26 10:50:04;;;;;;;5.38;3.30;;;19.30;99.90;;;;;;5020052;28;20033;-61
2022/10/26 10:52:38;;;;;;;3.85;2.65;;;19.50;99.90;;;;;;5019828;28;20033;-60
2022/10/26 10:55:13;;;;;;;3.80;2.47;;;19.60;99.90;;;;;;5019432;28;20025;-59
2022/10/26 10:58:03;;;;;;;2.88;2.33;;;19.70;99.90;;;;;;5016745;28;20021;-59
2022/10/26 11:00:33;;;;;;;8.43;2.40;;;19.30;99.90;;;;;;5019738;28;20054;-61
2022/10/26 11:03:15;;;;;;;4.10;2.42;;;19.30;99.90;;;;;;5019280;28;20532;-60
2022/10/26 11:06:02;;;;;;;3.63;2.88;;;19.20;99.90;;;;;;5016781;28;20028;-60
2022/10/26 11:08:53;;;;;;;3.00;2.70;;;19.30;99.90;;;;;;5018704;28;20551;-60
2022/10/26 11:11:35;;;;;;;3.22;2.85;;;19.40;99.90;;;;;;5024214;28;20506;-59
2022/10/26 11:14:07;;;;;;;3.33;3.00;;;19.30;99.90;;;;;;5018994;28;20494;-60
2022/10/26 11:16:49;;;;;;;7.15;2.92;;;19.10;99.90;;;;;;5017948;28;20034;-60
2022/10/26 11:19:24;;;;;;;9.77;3.42;;;19.20;99.90;;;;;;5024805;28;20049;-60
2022/10/26 11:21:53;;;;;;;3.80;2.28;;;19.30;99.90;;;;;;5018150;28;20461;-60
2022/10/26 11:24:19;;;;;;;3.38;2.55;;;19.30;99.90;;;;;;5016830;28;20046;-60
2022/10/26 11:26:59;;;;;;;3.33;2.28;;;18.90;99.90;;;;;;5021201;28;20053;-60
2022/10/26 11:29:48;;;;;;;8.80;2.92;;;18.70;99.90;;;;;;5022634;28;20477;-60
2022/10/26 11:32:19;;;;;;;3.95;2.38;;;18.50;99.90;;;;;;5004568;28;20126;-60
2022/10/26 11:34:51;;;;;;;4.63;2.70;;;18.40;99.90;;;;;;5024923;28;20037;-60
2022/10/26 11:37:39;;;;;;;4.07;3.08;;;18.30;99.90;;;;;;5024295;28;20417;-59
2022/10/26 11:40:20;;;;;;;3.72;2.33;;;18.50;99.90;;;;;;5025739;28;20038;-60
2022/10/26 11:42:51;;;;;;;4.35;2.40;;;18.70;99.90;;;;;;5019977;28;20801;-60
2022/10/26 11:45:22;;;;;;;;;;;18.80;99.90;;;;;;5019817;28;20069;-60
2022/10/26 11:48:19;;;;;;;4.88;2.30;;;18.90;99.90;;;;;;5018513;28;19916;-61
2022/10/26 11:50:51;;;;;;;3.00;2.33;;;19.00;99.90;;;;;;5025050;28;20522;-59
2022/10/26 11:53:44;;;;;;;2.47;1.98;;;19.30;99.90;;;;;;5025461;28;20049;-60
2022/10/26 11:56:26;;;;;;;4.15;1.88;;;19.60;99.90;;;;;;5020297;28;20041;-60
2022/10/26 11:58:52;;;;;;;6.25;1.77;;;19.40;99.90;;;;;;5024915;28;20425;-59
2022/10/26 12:01:19;;;;;;;2.88;1.77;;;19.40;99.90;;;;;;5023633;28;20095;-60
2022/10/26 12:03:49;;;;;;;4.03;1.92;;;19.30;99.90;;;;;;5022181;28;20401;-60
2022/10/26 12:06:19;;;;;;;5.72;2.25;;;19.20;99.90;;;;;;5020155;28;20639;-59
2022/10/26 12:09:14;;;;;;;1.88;1.50;;;19.20;99.90;;;;;;5026620;28;20032;-59
2022/10/26 12:11:45;;;;;;;5.28;1.90;;;19.50;99.90;;;;;;5022947;28;20080;-60
2022/10/26 12:14:29;;;;;;;4.13;2.10;;;19.80;99.90;;;;;;5022197;28;20025;-59
2022/10/26 12:17:24;;;;;;;5.65;2.83;;;19.90;99.90;;;;;;5019584;28;20034;-60
2022/10/26 12:20:01;;;;;;;3.13;1.83;;;19.90;99.90;;;;;;5018935;28;20563;-60
2022/10/26 12:22:38;;;;;;;5.22;1.95;;;19.70;99.90;;;;;;5018988;28;20025;-60
2022/10/26 12:25:17;;;;;;;4.15;1.50;;;19.40;99.90;;;;;;5019154;28;20079;-59
2022/10/26 12:27:43;;;;;;;8.85;2.20;;;19.40;99.90;;;;;;5020070;28;20053;-59
2022/10/26 12:30:14;;;;;;;3.28;1.92;;;19.10;99.90;;;;;;5023218;28;20065;-59
2022/10/26 12:32:40;;;;;;;4.32;2.17;;;18.90;99.90;;;;;;5021278;28;20071;-60
2022/10/26 12:35:31;;;;;;;2.70;1.85;;;18.80;99.90;;;;;;5020739;28;20030;-60
2022/10/26 12:37:58;;;;;;;2.63;1.80;;;18.90;99.90;;;;;;5023760;28;20037;-59
2022/10/26 12:40:32;;;;;;;2.75;1.65;;;19.00;99.90;;;;;;5024472;28;20068;-60
2022/10/26 12:43:24;;;;;;;4.13;2.00;;;18.90;99.90;;;;;;5023661;28;20034;-60
2022/10/26 12:46:11;;;;;;;4.95;1.85;;;19.00;99.90;;;;;;5001084;28;20033;-59
2022/10/26 12:48:50;;;;;;;2.60;1.80;;;19.10;99.90;;;;;;5023269;28;20105;-59
2022/10/26 12:51:23;;;;;;;4.40;1.90;;;19.20;99.90;;;;;;5021173;28;20037;-60
2022/10/26 12:54:00;;;;;;;10.90;1.90;;;19.20;99.90;;;;;;5020691;28;20028;-59
2022/10/26 12:57:09;;;;;;;5.45;3.30;;;19.30;99.90;;;;;;5016789;28;20399;-59
2022/10/26 13:00:03;;;;;;;4.65;2.00;;;19.20;99.90;;;;;;4929909;29;20497;-59
2022/10/26 13:02:53;;;;;;;6.80;2.08;;;19.10;99.90;;;;;;4919969;29;20034;-59
2022/10/26 13:05:46;;;;;;;5.45;2.10;;;19.00;99.90;;;;;;5005402;28;20116;-61
2022/10/26 13:08:13;;;;;;;4.32;2.00;;;18.80;99.90;;;;;;5017858;28;20056;-60
2022/10/26 13:11:00;;;;;;;2.58;1.58;;;18.70;99.90;;;;;;5018933;28;20026;-59
2022/10/26 13:13:30;;;;;;;2.65;1.90;;;18.70;99.90;;;;;;5019338;28;20116;-60